sensor_id;sensor_type;location;lat;lon;timestamp;P1;durP1;ratioP1;P2;durP2;ratioP2
74469;SDS011;62918;55.706;37.816;2022-12-18T00:00:01;12.30;;;8.13;;
74469;SDS011;62918;55.706;37.816;2022-12-18T00:00:31;10.63;;;6.47;;
74469;SDS011;62918;55.706;37.816;2022-12-18T00:01:03;13.48;;;9.43;;
74469;SDS011;62918;55.706;37.816;2022-12-18T00:01:36;12.57;;;8.05;;
74469;SDS011;62918;55.706;37.816;2022-12-18T00:02:07;15.00;;;8.23;;
74469;SDS011;62918;55.706;37.816;2022-12-18T00:02:38;13.10;;;8.68;;
74469;SDS011;62918;55.706;37.816;2022-12-18T00:03:08;12.88;;;7.70;;
74469;SDS011;62918;55.706;37.816;2022-12-18T00:03:39;13.93;;;9.00;;
74469;SDS011;62918;55.706;37.816;2022-12-18T00:04:22;11.48;;;7.63;;
74469;SDS011;62918;55.706;37.816;2022-12-18T00:04:54;10.65;;;6.90;;
74469;SDS011;62918;55.706;37.816;2022-12-18T00:05:24;10.98;;;6.88;;
74469;SDS011;62918;55.706;37.816;2022-12-18T00:05:55;13.55;;;8.32;;
74469;SDS011;62918;55.706;37.816;2022-12-18T00:06:27;11.02;;;7.43;;
74469;SDS011;62918;55.706;37.816;2022-12-18T00:06:58;12.32;;;8.50;;
74469;SDS011;62918;55.706;37.816;2022-12-18T00:07:29;13.07;;;8.95;;
74469;SDS011;62918;55.706;37.816;2022-12-18T00:07:59;12.77;;;8.77;;
74469;SDS011;62918;55.706;37.816;2022-12-18T00:08:30;13.77;;;9.00;;
74469;SDS011;62918;55.706;37.816;2022-12-18T00:09:01;11.88;;;7.53;;
74469;SDS011;62918;55.706;37.816;2022-12-18T00:09:32;13.88;;;9.27;;
74469;SDS011;62918;55.706;37.816;2022-12-18T00:10:03;12.05;;;8.15;;
74469;SDS011;62918;55.706;37.816;2022-12-18T00:10:34;10.57;;;7.15;;
74469;SDS011;62918;55.706;37.816;2022-12-18T00:11:10;11.13;;;7.85;;
74469;SDS011;62918;55.706;37.816;2022-12-18T00:11:42;11.80;;;7.57;;
74469;SDS011;62918;55.706;37.816;2022-12-18T00:12:13;11.30;;;7.10;;
74469;SDS011;62918;55.706;37.816;2022-12-18T00:12:43;13.38;;;8.50;;
74469;SDS011;62918;55.706;37.816;2022-12-18T00:13:14;12.40;;;8.10;;
74469;SDS011;62918;55.706;37.816;2022-12-18T00:13:45;13.15;;;8.73;;
74469;SDS011;62918;55.706;37.816;2022-12-18T00:14:16;12.38;;;8.32;;
74469;SDS011;62918;55.706;37.816;2022-12-18T00:14:47;12.38;;;7.97;;
74469;SDS011;62918;55.706;37.816;2022-12-18T00:15:17;9.88;;;6.68;;
74469;SDS011;62918;55.706;37.816;2022-12-18T00:15:48;12.57;;;8.05;;
74469;SDS011;62918;55.706;37.816;2022-12-18T00:16:19;11.98;;;8.70;;
74469;SDS011;62918;55.706;37.816;2022-12-18T00:16:52;11.45;;;8.00;;
74469;SDS011;62918;55.706;37.816;2022-12-18T00:17:22;13.00;;;7.75;;
74469;SDS011;62918;55.706;37.816;2022-12-18T00:17:53;11.40;;;7.35;;
74469;SDS011;62918;55.706;37.816;2022-12-18T00:18:23;11.40;;;7.38;;
74469;SDS011;62918;55.706;37.816;2022-12-18T00:18:54;12.32;;;7.78;;
74469;SDS011;62918;55.706;37.816;2022-12-18T00:19:26;11.50;;;8.00;;
74469;SDS011;62918;55.706;37.816;2022-12-18T00:19:57;10.65;;;6.88;;
74469;SDS011;62918;55.706;37.816;2022-12-18T00:20:27;10.75;;;6.60;;
74469;SDS011;62918;55.706;37.816;2022-12-18T00:20:59;10.07;;;7.00;;
74469;SDS011;62918;55.706;37.816;2022-12-18T00:21:31;9.32;;;5.60;;
74469;SDS011;62918;55.706;37.816;2022-12-18T00:22:03;11.68;;;7.53;;
74469;SDS011;62918;55.706;37.816;2022-12-18T00:22:33;10.88;;;6.88;;
74469;SDS011;62918;55.706;37.816;2022-12-18T00:23:04;10.93;;;6.63;;
74469;SDS011;62918;55.706;37.816;2022-12-18T00:23:36;8.20;;;5.75;;
74469;SDS011;62918;55.706;37.816;2022-12-18T00:24:08;13.15;;;8.48;;
74469;SDS011;62918;55.706;37.816;2022-12-18T00:24:39;9.88;;;7.18;;
74469;SDS011;62918;55.706;37.816;2022-12-18T00:25:10;10.85;;;7.70;;
74469;SDS011;62918;55.706;37.816;2022-12-18T00:25:40;12.50;;;8.38;;
74469;SDS011;62918;55.706;37.816;2022-12-18T00:26:12;12.05;;;7.70;;
74469;SDS011;62918;55.706;37.816;2022-12-18T00:26:45;11.82;;;7.75;;
74469;SDS011;62918;55.706;37.816;2022-12-18T00:27:15;12.50;;;8.30;;
74469;SDS011;62918;55.706;37.816;2022-12-18T00:27:46;12.90;;;7.60;;
74469;SDS011;62918;55.706;37.816;2022-12-18T00:28:16;11.57;;;8.05;;
74469;SDS011;62918;55.706;37.816;2022-12-18T00:28:47;11.60;;;7.53;;
74469;SDS011;62918;55.706;37.816;2022-12-18T00:29:18;10.23;;;7.47;;
74469;SDS011;62918;55.706;37.816;2022-12-18T00:29:49;10.60;;;6.53;;
74469;SDS011;62918;55.706;37.816;2022-12-18T00:30:19;11.68;;;7.93;;
74469;SDS011;62918;55.706;37.816;2022-12-18T00:30:50;10.77;;;6.68;;
74469;SDS011;62918;55.706;37.816;2022-12-18T00:31:22;12.27;;;8.00;;
74469;SDS011;62918;55.706;37.816;2022-12-18T00:32:57;10.15;;;6.25;;
74469;SDS011;62918;55.706;37.816;2022-12-18T00:33:27;10.60;;;7.00;;
74469;SDS011;62918;55.706;37.816;2022-12-18T00:33:58;9.98;;;6.63;;
74469;SDS011;62918;55.706;37.816;2022-12-18T00:34:29;11.82;;;6.90;;
74469;SDS011;62918;55.706;37.816;2022-12-18T00:34:59;10.80;;;7.03;;
74469;SDS011;62918;55.706;37.816;2022-12-18T00:35:31;9.13;;;6.03;;
74469;SDS011;62918;55.706;37.816;2022-12-18T00:36:05;8.38;;;5.95;;
74469;SDS011;62918;55.706;37.816;2022-12-18T00:36:41;9.90;;;6.47;;
74469;SDS011;62918;55.706;37.816;2022-12-18T00:37:12;9.75;;;6.53;;
74469;SDS011;62918;55.706;37.816;2022-12-18T00:37:42;11.43;;;7.72;;
74469;SDS011;62918;55.706;37.816;2022-12-18T00:38:13;12.23;;;7.78;;
74469;SDS011;62918;55.706;37.816;2022-12-18T00:38:43;9.25;;;5.07;;
74469;SDS011;62918;55.706;37.816;2022-12-18T00:39:14;9.75;;;6.78;;
74469;SDS011;62918;55.706;37.816;2022-12-18T00:39:45;9.35;;;6.28;;
74469;SDS011;62918;55.706;37.816;2022-12-18T00:40:17;10.60;;;6.03;;
74469;SDS011;62918;55.706;37.816;2022-12-18T00:40:48;11.73;;;6.97;;
74469;SDS011;62918;55.706;37.816;2022-12-18T00:41:18;9.32;;;5.55;;
74469;SDS011;62918;55.706;37.816;2022-12-18T00:42:09;10.93;;;7.03;;
74469;SDS011;62918;55.706;37.816;2022-12-18T00:44:00;10.73;;;6.90;;
74469;SDS011;62918;55.706;37.816;2022-12-18T00:44:30;10.15;;;6.38;;
74469;SDS011;62918;55.706;37.816;2022-12-18T00:45:01;10.38;;;6.78;;
74469;SDS011;62918;55.706;37.816;2022-12-18T00:45:32;11.02;;;7.05;;
74469;SDS011;62918;55.706;37.816;2022-12-18T00:46:02;8.55;;;5.30;;
74469;SDS011;62918;55.706;37.816;2022-12-18T00:46:33;9.90;;;6.05;;
74469;SDS011;62918;55.706;37.816;2022-12-18T00:47:04;9.75;;;6.43;;
74469;SDS011;62918;55.706;37.816;2022-12-18T00:47:34;12.05;;;7.55;;
74469;SDS011;62918;55.706;37.816;2022-12-18T00:48:05;13.02;;;7.60;;
74469;SDS011;62918;55.706;37.816;2022-12-18T00:48:35;11.45;;;7.35;;
74469;SDS011;62918;55.706;37.816;2022-12-18T00:49:06;11.80;;;6.05;;
74469;SDS011;62918;55.706;37.816;2022-12-18T00:49:37;10.43;;;7.15;;
74469;SDS011;62918;55.706;37.816;2022-12-18T00:50:08;11.70;;;6.95;;
74469;SDS011;62918;55.706;37.816;2022-12-18T00:50:39;10.02;;;5.93;;
74469;SDS011;62918;55.706;37.816;2022-12-18T00:51:09;11.30;;;7.15;;
74469;SDS011;62918;55.706;37.816;2022-12-18T00:51:40;6.30;;;4.18;;
74469;SDS011;62918;55.706;37.816;2022-12-18T00:52:11;10.88;;;6.97;;
74469;SDS011;62918;55.706;37.816;2022-12-18T00:52:41;11.55;;;7.70;;
74469;SDS011;62918;55.706;37.816;2022-12-18T00:53:12;10.75;;;6.47;;
74469;SDS011;62918;55.706;37.816;2022-12-18T00:53:43;11.85;;;7.57;;
74469;SDS011;62918;55.706;37.816;2022-12-18T00:54:13;7.82;;;4.80;;
74469;SDS011;62918;55.706;37.816;2022-12-18T00:54:44;10.48;;;6.90;;
74469;SDS011;62918;55.706;37.816;2022-12-18T00:55:15;10.20;;;6.30;;
74469;SDS011;62918;55.706;37.816;2022-12-18T00:55:47;12.60;;;7.50;;
74469;SDS011;62918;55.706;37.816;2022-12-18T00:56:17;10.57;;;7.25;;
74469;SDS011;62918;55.706;37.816;2022-12-18T00:56:51;11.48;;;7.95;;
74469;SDS011;62918;55.706;37.816;2022-12-18T00:57:21;9.27;;;6.07;;
74469;SDS011;62918;55.706;37.816;2022-12-18T00:57:52;10.68;;;6.95;;
74469;SDS011;62918;55.706;37.816;2022-12-18T00:58:23;9.63;;;6.40;;
74469;SDS011;62918;55.706;37.816;2022-12-18T00:58:53;9.65;;;6.63;;
74469;SDS011;62918;55.706;37.816;2022-12-18T00:59:24;9.18;;;6.25;;
74469;SDS011;62918;55.706;37.816;2022-12-18T00:59:54;10.65;;;6.82;;
74469;SDS011;62918;55.706;37.816;2022-12-18T01:00:25;12.20;;;7.95;;
74469;SDS011;62918;55.706;37.816;2022-12-18T01:00:55;10.05;;;6.43;;
74469;SDS011;62918;55.706;37.816;2022-12-18T01:01:26;10.88;;;6.38;;
74469;SDS011;62918;55.706;37.816;2022-12-18T01:01:57;10.68;;;7.13;;
74469;SDS011;62918;55.706;37.816;2022-12-18T01:02:27;10.93;;;6.95;;
74469;SDS011;62918;55.706;37.816;2022-12-18T01:03:00;9.10;;;6.57;;
74469;SDS011;62918;55.706;37.816;2022-12-18T01:03:31;12.23;;;8.75;;
74469;SDS011;62918;55.706;37.816;2022-12-18T01:04:02;11.05;;;6.22;;
74469;SDS011;62918;55.706;37.816;2022-12-18T01:04:34;11.10;;;7.65;;
74469;SDS011;62918;55.706;37.816;2022-12-18T01:05:04;9.50;;;5.72;;
74469;SDS011;62918;55.706;37.816;2022-12-18T01:05:38;10.65;;;7.13;;
74469;SDS011;62918;55.706;37.816;2022-12-18T01:06:12;10.52;;;7.38;;
74469;SDS011;62918;55.706;37.816;2022-12-18T01:06:44;8.82;;;5.88;;
74469;SDS011;62918;55.706;37.816;2022-12-18T01:07:15;10.73;;;7.43;;
74469;SDS011;62918;55.706;37.816;2022-12-18T01:07:45;11.38;;;6.65;;
74469;SDS011;62918;55.706;37.816;2022-12-18T01:08:16;12.57;;;5.57;;
74469;SDS011;62918;55.706;37.816;2022-12-18T01:08:46;11.55;;;7.70;;
74469;SDS011;62918;55.706;37.816;2022-12-18T01:09:17;9.25;;;5.90;;
74469;SDS011;62918;55.706;37.816;2022-12-18T01:09:47;10.13;;;7.30;;
74469;SDS011;62918;55.706;37.816;2022-12-18T01:10:18;8.65;;;4.85;;
74469;SDS011;62918;55.706;37.816;2022-12-18T01:10:49;10.82;;;6.70;;
74469;SDS011;62918;55.706;37.816;2022-12-18T01:11:19;9.63;;;6.28;;
74469;SDS011;62918;55.706;37.816;2022-12-18T01:11:51;10.25;;;7.30;;
74469;SDS011;62918;55.706;37.816;2022-12-18T01:12:21;10.50;;;7.20;;
74469;SDS011;62918;55.706;37.816;2022-12-18T01:12:52;12.30;;;6.88;;
74469;SDS011;62918;55.706;37.816;2022-12-18T01:13:22;10.25;;;7.22;;
74469;SDS011;62918;55.706;37.816;2022-12-18T01:13:53;9.45;;;6.85;;
74469;SDS011;62918;55.706;37.816;2022-12-18T01:14:24;11.27;;;7.75;;
74469;SDS011;62918;55.706;37.816;2022-12-18T01:14:55;9.15;;;5.60;;
74469;SDS011;62918;55.706;37.816;2022-12-18T01:15:26;10.35;;;6.85;;
74469;SDS011;62918;55.706;37.816;2022-12-18T01:15:56;11.45;;;6.97;;
74469;SDS011;62918;55.706;37.816;2022-12-18T01:16:27;11.38;;;7.63;;
74469;SDS011;62918;55.706;37.816;2022-12-18T01:16:57;11.23;;;6.35;;
74469;SDS011;62918;55.706;37.816;2022-12-18T01:17:28;10.25;;;6.95;;
74469;SDS011;62918;55.706;37.816;2022-12-18T01:17:58;10.45;;;7.03;;
74469;SDS011;62918;55.706;37.816;2022-12-18T01:18:29;10.52;;;7.53;;
74469;SDS011;62918;55.706;37.816;2022-12-18T01:18:59;9.75;;;6.43;;
74469;SDS011;62918;55.706;37.816;2022-12-18T01:19:30;11.10;;;6.78;;
74469;SDS011;62918;55.706;37.816;2022-12-18T01:20:00;10.50;;;6.55;;
74469;SDS011;62918;55.706;37.816;2022-12-18T01:20:31;11.20;;;7.30;;
74469;SDS011;62918;55.706;37.816;2022-12-18T01:21:08;10.98;;;7.35;;
74469;SDS011;62918;55.706;37.816;2022-12-18T01:21:41;9.23;;;6.78;;
74469;SDS011;62918;55.706;37.816;2022-12-18T01:22:12;9.63;;;7.47;;
74469;SDS011;62918;55.706;37.816;2022-12-18T01:22:42;9.73;;;6.40;;
74469;SDS011;62918;55.706;37.816;2022-12-18T01:23:13;10.38;;;7.57;;
74469;SDS011;62918;55.706;37.816;2022-12-18T01:23:43;10.05;;;6.53;;
74469;SDS011;62918;55.706;37.816;2022-12-18T01:24:14;11.25;;;6.78;;
74469;SDS011;62918;55.706;37.816;2022-12-18T01:24:44;12.50;;;7.57;;
74469;SDS011;62918;55.706;37.816;2022-12-18T01:25:15;11.25;;;7.35;;
74469;SDS011;62918;55.706;37.816;2022-12-18T01:25:46;10.32;;;6.93;;
74469;SDS011;62918;55.706;37.816;2022-12-18T01:26:16;9.70;;;6.85;;
74469;SDS011;62918;55.706;37.816;2022-12-18T01:26:47;10.80;;;7.70;;
74469;SDS011;62918;55.706;37.816;2022-12-18T01:27:17;8.75;;;5.82;;
74469;SDS011;62918;55.706;37.816;2022-12-18T01:27:48;8.25;;;5.35;;
74469;SDS011;62918;55.706;37.816;2022-12-18T01:28:19;9.85;;;7.10;;
74469;SDS011;62918;55.706;37.816;2022-12-18T01:28:49;10.82;;;6.30;;
74469;SDS011;62918;55.706;37.816;2022-12-18T01:29:19;10.90;;;7.20;;
74469;SDS011;62918;55.706;37.816;2022-12-18T01:29:50;10.07;;;6.72;;
74469;SDS011;62918;55.706;37.816;2022-12-18T01:30:21;9.32;;;6.30;;
74469;SDS011;62918;55.706;37.816;2022-12-18T01:30:51;9.60;;;6.80;;
74469;SDS011;62918;55.706;37.816;2022-12-18T01:31:54;10.70;;;7.65;;
74469;SDS011;62918;55.706;37.816;2022-12-18T01:32:26;10.73;;;6.43;;
74469;SDS011;62918;55.706;37.816;2022-12-18T01:32:59;9.48;;;6.82;;
74469;SDS011;62918;55.706;37.816;2022-12-18T01:33:29;9.90;;;5.70;;
74469;SDS011;62918;55.706;37.816;2022-12-18T01:34:00;9.27;;;5.32;;
74469;SDS011;62918;55.706;37.816;2022-12-18T01:34:31;8.85;;;5.85;;
74469;SDS011;62918;55.706;37.816;2022-12-18T01:35:02;9.90;;;7.20;;
74469;SDS011;62918;55.706;37.816;2022-12-18T01:35:33;10.63;;;7.03;;
74469;SDS011;62918;55.706;37.816;2022-12-18T01:36:23;8.57;;;5.55;;
74469;SDS011;62918;55.706;37.816;2022-12-18T01:36:55;10.13;;;6.32;;
74469;SDS011;62918;55.706;37.816;2022-12-18T01:37:26;10.35;;;6.60;;
74469;SDS011;62918;55.706;37.816;2022-12-18T01:37:56;9.27;;;7.32;;
74469;SDS011;62918;55.706;37.816;2022-12-18T01:38:28;9.07;;;5.95;;
74469;SDS011;62918;55.706;37.816;2022-12-18T01:39:02;7.88;;;5.15;;
74469;SDS011;62918;55.706;37.816;2022-12-18T01:39:35;9.52;;;6.05;;
74469;SDS011;62918;55.706;37.816;2022-12-18T01:40:06;7.72;;;5.45;;
74469;SDS011;62918;55.706;37.816;2022-12-18T01:40:37;10.90;;;6.60;;
74469;SDS011;62918;55.706;37.816;2022-12-18T01:41:08;10.25;;;6.85;;
74469;SDS011;62918;55.706;37.816;2022-12-18T01:41:39;11.15;;;6.45;;
74469;SDS011;62918;55.706;37.816;2022-12-18T01:42:28;8.40;;;5.95;;
74469;SDS011;62918;55.706;37.816;2022-12-18T01:42:59;8.43;;;5.53;;
74469;SDS011;62918;55.706;37.816;2022-12-18T01:45:22;10.27;;;6.72;;
74469;SDS011;62918;55.706;37.816;2022-12-18T01:45:55;10.48;;;6.82;;
74469;SDS011;62918;55.706;37.816;2022-12-18T01:46:29;9.48;;;5.25;;
74469;SDS011;62918;55.706;37.816;2022-12-18T01:47:00;9.10;;;6.13;;
74469;SDS011;62918;55.706;37.816;2022-12-18T01:47:43;9.00;;;4.93;;
74469;SDS011;62918;55.706;37.816;2022-12-18T01:48:14;9.77;;;6.25;;
74469;SDS011;62918;55.706;37.816;2022-12-18T01:48:46;9.45;;;6.68;;
74469;SDS011;62918;55.706;37.816;2022-12-18T01:49:19;6.68;;;4.13;;
74469;SDS011;62918;55.706;37.816;2022-12-18T01:49:49;10.50;;;7.03;;
74469;SDS011;62918;55.706;37.816;2022-12-18T01:50:53;11.10;;;7.22;;
74469;SDS011;62918;55.706;37.816;2022-12-18T01:51:24;9.75;;;6.90;;
74469;SDS011;62918;55.706;37.816;2022-12-18T01:51:56;9.18;;;5.82;;
74469;SDS011;62918;55.706;37.816;2022-12-18T01:52:28;8.73;;;5.43;;
74469;SDS011;62918;55.706;37.816;2022-12-18T01:53:03;8.60;;;5.40;;
74469;SDS011;62918;55.706;37.816;2022-12-18T01:53:37;11.32;;;6.50;;
74469;SDS011;62918;55.706;37.816;2022-12-18T01:54:09;10.45;;;6.60;;
74469;SDS011;62918;55.706;37.816;2022-12-18T01:54:40;9.07;;;6.70;;
74469;SDS011;62918;55.706;37.816;2022-12-18T01:55:10;9.38;;;6.20;;
74469;SDS011;62918;55.706;37.816;2022-12-18T01:55:43;8.55;;;5.53;;
74469;SDS011;62918;55.706;37.816;2022-12-18T01:56:20;9.70;;;6.30;;
74469;SDS011;62918;55.706;37.816;2022-12-18T01:56:52;8.98;;;6.43;;
74469;SDS011;62918;55.706;37.816;2022-12-18T01:57:23;8.82;;;6.28;;
74469;SDS011;62918;55.706;37.816;2022-12-18T01:59:10;9.93;;;6.28;;
74469;SDS011;62918;55.706;37.816;2022-12-18T01:59:42;9.25;;;6.18;;
74469;SDS011;62918;55.706;37.816;2022-12-18T02:00:18;8.70;;;5.75;;
74469;SDS011;62918;55.706;37.816;2022-12-18T02:00:51;8.95;;;6.20;;
74469;SDS011;62918;55.706;37.816;2022-12-18T02:01:22;8.93;;;6.05;;
74469;SDS011;62918;55.706;37.816;2022-12-18T02:01:53;8.65;;;5.97;;
74469;SDS011;62918;55.706;37.816;2022-12-18T02:02:24;8.10;;;5.53;;
74469;SDS011;62918;55.706;37.816;2022-12-18T02:02:58;8.07;;;5.53;;
74469;SDS011;62918;55.706;37.816;2022-12-18T02:03:28;10.32;;;6.63;;
74469;SDS011;62918;55.706;37.816;2022-12-18T02:04:53;9.43;;;6.28;;
74469;SDS011;62918;55.706;37.816;2022-12-18T02:05:44;10.00;;;6.38;;
74469;SDS011;62918;55.706;37.816;2022-12-18T02:06:34;7.75;;;4.93;;
74469;SDS011;62918;55.706;37.816;2022-12-18T02:08:22;9.73;;;6.32;;
74469;SDS011;62918;55.706;37.816;2022-12-18T02:09:15;7.50;;;4.90;;
74469;SDS011;62918;55.706;37.816;2022-12-18T02:12:24;8.20;;;5.22;;
74469;SDS011;62918;55.706;37.816;2022-12-18T02:16:00;9.20;;;5.97;;
74469;SDS011;62918;55.706;37.816;2022-12-18T02:17:41;9.15;;;5.75;;
74469;SDS011;62918;55.706;37.816;2022-12-18T02:18:27;7.00;;;4.43;;
74469;SDS011;62918;55.706;37.816;2022-12-18T02:19:50;8.57;;;3.85;;
74469;SDS011;62918;55.706;37.816;2022-12-18T02:20:35;9.70;;;6.43;;
74469;SDS011;62918;55.706;37.816;2022-12-18T02:21:13;8.38;;;4.97;;
74469;SDS011;62918;55.706;37.816;2022-12-18T02:21:48;6.85;;;4.53;;
74469;SDS011;62918;55.706;37.816;2022-12-18T02:23:30;7.25;;;4.78;;
74469;SDS011;62918;55.706;37.816;2022-12-18T02:24:28;8.77;;;5.88;;
74469;SDS011;62918;55.706;37.816;2022-12-18T02:26:15;9.80;;;4.93;;
74469;SDS011;62918;55.706;37.816;2022-12-18T02:27:04;8.18;;;4.78;;
74469;SDS011;62918;55.706;37.816;2022-12-18T02:27:36;7.13;;;4.75;;
74469;SDS011;62918;55.706;37.816;2022-12-18T02:28:09;9.38;;;5.75;;
74469;SDS011;62918;55.706;37.816;2022-12-18T02:29:27;8.85;;;5.50;;
74469;SDS011;62918;55.706;37.816;2022-12-18T02:30:02;10.48;;;6.05;;
74469;SDS011;62918;55.706;37.816;2022-12-18T02:30:36;8.90;;;5.65;;
74469;SDS011;62918;55.706;37.816;2022-12-18T02:31:11;9.50;;;5.60;;
74469;SDS011;62918;55.706;37.816;2022-12-18T02:31:53;9.80;;;6.13;;
74469;SDS011;62918;55.706;37.816;2022-12-18T02:32:31;9.40;;;5.43;;
74469;SDS011;62918;55.706;37.816;2022-12-18T02:33:06;9.80;;;6.05;;
74469;SDS011;62918;55.706;37.816;2022-12-18T02:33:39;8.98;;;6.40;;
74469;SDS011;62918;55.706;37.816;2022-12-18T02:34:13;7.90;;;4.97;;
74469;SDS011;62918;55.706;37.816;2022-12-18T02:34:45;9.90;;;7.13;;
74469;SDS011;62918;55.706;37.816;2022-12-18T02:35:21;10.00;;;5.47;;
74469;SDS011;62918;55.706;37.816;2022-12-18T02:35:55;5.30;;;3.17;;
74469;SDS011;62918;55.706;37.816;2022-12-18T02:36:28;10.38;;;6.22;;
74469;SDS011;62918;55.706;37.816;2022-12-18T02:37:02;7.90;;;4.72;;
74469;SDS011;62918;55.706;37.816;2022-12-18T02:37:35;6.72;;;4.82;;
74469;SDS011;62918;55.706;37.816;2022-12-18T02:38:09;8.75;;;4.93;;
74469;SDS011;62918;55.706;37.816;2022-12-18T02:38:42;9.18;;;5.30;;
74469;SDS011;62918;55.706;37.816;2022-12-18T02:39:14;7.13;;;4.60;;
74469;SDS011;62918;55.706;37.816;2022-12-18T02:39:47;8.60;;;6.03;;
74469;SDS011;62918;55.706;37.816;2022-12-18T02:40:19;9.07;;;5.57;;
74469;SDS011;62918;55.706;37.816;2022-12-18T02:40:53;7.88;;;5.00;;
74469;SDS011;62918;55.706;37.816;2022-12-18T02:41:25;8.38;;;6.20;;
74469;SDS011;62918;55.706;37.816;2022-12-18T02:41:56;8.25;;;5.70;;
74469;SDS011;62918;55.706;37.816;2022-12-18T02:42:27;14.38;;;5.88;;
74469;SDS011;62918;55.706;37.816;2022-12-18T02:43:12;6.93;;;4.55;;
74469;SDS011;62918;55.706;37.816;2022-12-18T02:43:48;7.90;;;5.45;;
74469;SDS011;62918;55.706;37.816;2022-12-18T02:44:19;6.55;;;4.90;;
74469;SDS011;62918;55.706;37.816;2022-12-18T02:44:50;9.45;;;6.18;;
74469;SDS011;62918;55.706;37.816;2022-12-18T02:45:21;9.23;;;6.35;;
74469;SDS011;62918;55.706;37.816;2022-12-18T02:45:53;8.35;;;5.43;;
74469;SDS011;62918;55.706;37.816;2022-12-18T02:46:28;9.90;;;6.07;;
74469;SDS011;62918;55.706;37.816;2022-12-18T02:47:04;9.13;;;5.88;;
74469;SDS011;62918;55.706;37.816;2022-12-18T02:47:39;10.30;;;6.53;;
74469;SDS011;62918;55.706;37.816;2022-12-18T02:48:12;8.50;;;5.13;;
74469;SDS011;62918;55.706;37.816;2022-12-18T02:48:43;8.65;;;5.78;;
74469;SDS011;62918;55.706;37.816;2022-12-18T02:50:05;8.18;;;5.35;;
74469;SDS011;62918;55.706;37.816;2022-12-18T02:50:55;7.85;;;4.78;;
74469;SDS011;62918;55.706;37.816;2022-12-18T02:51:33;5.78;;;3.72;;
74469;SDS011;62918;55.706;37.816;2022-12-18T02:54:03;7.80;;;4.75;;
74469;SDS011;62918;55.706;37.816;2022-12-18T02:56:20;8.68;;;5.53;;
74469;SDS011;62918;55.706;37.816;2022-12-18T02:56:59;6.90;;;4.63;;
74469;SDS011;62918;55.706;37.816;2022-12-18T02:57:46;8.95;;;5.35;;
74469;SDS011;62918;55.706;37.816;2022-12-18T02:59:25;7.00;;;5.03;;
74469;SDS011;62918;55.706;37.816;2022-12-18T03:00:06;6.95;;;3.78;;
74469;SDS011;62918;55.706;37.816;2022-12-18T03:00:43;9.25;;;5.05;;
74469;SDS011;62918;55.706;37.816;2022-12-18T03:01:30;9.73;;;5.13;;
74469;SDS011;62918;55.706;37.816;2022-12-18T03:02:50;7.95;;;5.00;;
74469;SDS011;62918;55.706;37.816;2022-12-18T03:03:40;7.97;;;5.47;;
74469;SDS011;62918;55.706;37.816;2022-12-18T03:04:17;8.75;;;4.90;;
74469;SDS011;62918;55.706;37.816;2022-12-18T03:05:14;8.30;;;5.43;;
74469;SDS011;62918;55.706;37.816;2022-12-18T03:06:02;7.53;;;4.68;;
74469;SDS011;62918;55.706;37.816;2022-12-18T03:06:41;7.85;;;4.80;;
74469;SDS011;62918;55.706;37.816;2022-12-18T03:07:33;7.60;;;4.97;;
74469;SDS011;62918;55.706;37.816;2022-12-18T03:08:28;7.85;;;5.00;;
74469;SDS011;62918;55.706;37.816;2022-12-18T03:09:05;5.90;;;4.35;;
74469;SDS011;62918;55.706;37.816;2022-12-18T03:09:45;7.63;;;4.57;;
74469;SDS011;62918;55.706;37.816;2022-12-18T03:10:21;6.10;;;3.90;;
74469;SDS011;62918;55.706;37.816;2022-12-18T03:11:37;8.05;;;5.50;;
74469;SDS011;62918;55.706;37.816;2022-12-18T03:12:32;9.65;;;5.22;;
74469;SDS011;62918;55.706;37.816;2022-12-18T03:13:07;9.48;;;5.57;;
74469;SDS011;62918;55.706;37.816;2022-12-18T03:13:49;10.98;;;5.45;;
74469;SDS011;62918;55.706;37.816;2022-12-18T03:14:23;7.13;;;4.68;;
74469;SDS011;62918;55.706;37.816;2022-12-18T03:15:06;8.30;;;5.55;;
74469;SDS011;62918;55.706;37.816;2022-12-18T03:15:43;6.65;;;4.60;;
74469;SDS011;62918;55.706;37.816;2022-12-18T03:16:19;6.35;;;3.70;;
74469;SDS011;62918;55.706;37.816;2022-12-18T03:16:54;6.38;;;3.95;;
74469;SDS011;62918;55.706;37.816;2022-12-18T03:17:31;7.60;;;4.57;;
74469;SDS011;62918;55.706;37.816;2022-12-18T03:18:04;9.93;;;5.30;;
74469;SDS011;62918;55.706;37.816;2022-12-18T03:18:57;7.82;;;4.40;;
74469;SDS011;62918;55.706;37.816;2022-12-18T03:19:31;8.02;;;4.93;;
74469;SDS011;62918;55.706;37.816;2022-12-18T03:20:38;6.72;;;4.28;;
74469;SDS011;62918;55.706;37.816;2022-12-18T03:21:10;7.55;;;5.10;;
74469;SDS011;62918;55.706;37.816;2022-12-18T03:21:45;7.57;;;5.45;;
74469;SDS011;62918;55.706;37.816;2022-12-18T03:22:18;7.00;;;5.00;;
74469;SDS011;62918;55.706;37.816;2022-12-18T03:22:51;5.70;;;3.50;;
74469;SDS011;62918;55.706;37.816;2022-12-18T03:23:27;7.05;;;4.10;;
74469;SDS011;62918;55.706;37.816;2022-12-18T03:24:03;7.35;;;4.85;;
74469;SDS011;62918;55.706;37.816;2022-12-18T03:24:36;8.48;;;4.95;;
74469;SDS011;62918;55.706;37.816;2022-12-18T03:25:10;9.20;;;5.82;;
74469;SDS011;62918;55.706;37.816;2022-12-18T03:25:44;8.07;;;5.10;;
74469;SDS011;62918;55.706;37.816;2022-12-18T03:26:17;7.60;;;4.95;;
74469;SDS011;62918;55.706;37.816;2022-12-18T03:26:56;6.03;;;3.50;;
74469;SDS011;62918;55.706;37.816;2022-12-18T03:27:31;8.40;;;4.85;;
74469;SDS011;62918;55.706;37.816;2022-12-18T03:28:03;9.02;;;5.28;;
74469;SDS011;62918;55.706;37.816;2022-12-18T03:28:39;7.78;;;4.97;;
74469;SDS011;62918;55.706;37.816;2022-12-18T03:29:22;7.80;;;5.55;;
74469;SDS011;62918;55.706;37.816;2022-12-18T03:30:01;7.85;;;4.95;;
74469;SDS011;62918;55.706;37.816;2022-12-18T03:30:37;8.07;;;5.53;;
74469;SDS011;62918;55.706;37.816;2022-12-18T03:31:11;10.13;;;5.70;;
74469;SDS011;62918;55.706;37.816;2022-12-18T03:31:45;6.80;;;5.15;;
74469;SDS011;62918;55.706;37.816;2022-12-18T03:32:25;6.60;;;4.55;;
74469;SDS011;62918;55.706;37.816;2022-12-18T03:33:52;7.88;;;4.95;;
74469;SDS011;62918;55.706;37.816;2022-12-18T03:34:29;8.07;;;5.18;;
74469;SDS011;62918;55.706;37.816;2022-12-18T03:35:03;7.43;;;4.82;;
74469;SDS011;62918;55.706;37.816;2022-12-18T03:35:37;8.65;;;5.47;;
74469;SDS011;62918;55.706;37.816;2022-12-18T03:36:11;8.32;;;6.05;;
74469;SDS011;62918;55.706;37.816;2022-12-18T03:36:42;7.28;;;4.57;;
74469;SDS011;62918;55.706;37.816;2022-12-18T03:37:13;6.90;;;4.90;;
74469;SDS011;62918;55.706;37.816;2022-12-18T03:37:43;7.55;;;5.28;;
74469;SDS011;62918;55.706;37.816;2022-12-18T03:38:14;8.00;;;5.45;;
74469;SDS011;62918;55.706;37.816;2022-12-18T03:38:44;9.15;;;5.70;;
74469;SDS011;62918;55.706;37.816;2022-12-18T03:39:15;8.02;;;6.22;;
74469;SDS011;62918;55.706;37.816;2022-12-18T03:39:46;7.30;;;4.88;;
74469;SDS011;62918;55.706;37.816;2022-12-18T03:40:16;5.38;;;3.65;;
74469;SDS011;62918;55.706;37.816;2022-12-18T03:40:52;7.30;;;4.78;;
74469;SDS011;62918;55.706;37.816;2022-12-18T03:42:58;5.53;;;3.80;;
74469;SDS011;62918;55.706;37.816;2022-12-18T03:45:43;6.07;;;3.75;;
74469;SDS011;62918;55.706;37.816;2022-12-18T03:48:56;8.18;;;4.88;;
74469;SDS011;62918;55.706;37.816;2022-12-18T03:49:39;6.55;;;4.65;;
74469;SDS011;62918;55.706;37.816;2022-12-18T03:50:21;6.53;;;3.83;;
74469;SDS011;62918;55.706;37.816;2022-12-18T03:50:59;8.20;;;5.15;;
74469;SDS011;62918;55.706;37.816;2022-12-18T03:52:29;7.60;;;5.00;;